sensor_id;sensor_type;location;lat;lon;timestamp;P1;durP1;ratioP1;P2;durP2;ratioP2
6941;SDS011;3510;43.200;27.920;2022-07-24T00:00:54;8.32;;;7.63;;
6941;SDS011;3510;43.200;27.920;2022-07-24T00:03:21;12.52;;;8.98;;
6941;SDS011;3510;43.200;27.920;2022-07-24T00:05:48;11.02;;;8.20;;
6941;SDS011;3510;43.200;27.920;2022-07-24T00:08:16;11.65;;;9.23;;
6941;SDS011;3510;43.200;27.920;2022-07-24T00:10:45;10.30;;;9.27;;
6941;SDS011;3510;43.200;27.920;2022-07-24T00:13:11;16.58;;;10.10;;
6941;SDS011;3510;43.200;27.920;2022-07-24T00:15:38;15.25;;;12.88;;
6941;SDS011;3510;43.200;27.920;2022-07-24T00:18:05;17.45;;;12.43;;
6941;SDS011;3510;43.200;27.920;2022-07-24T00:20:32;14.48;;;12.57;;
6941;SDS011;3510;43.200;27.920;2022-07-24T00:22:59;22.65;;;10.40;;
6941;SDS011;3510;43.200;27.920;2022-07-24T00:25:26;10.55;;;9.55;;
6941;SDS011;3510;43.200;27.920;2022-07-24T00:27:55;13.57;;;9.75;;
6941;SDS011;3510;43.200;27.920;2022-07-24T00:30:22;10.38;;;9.45;;
6941;SDS011;3510;43.200;27.920;2022-07-24T00:32:49;12.77;;;9.00;;
6941;SDS011;3510;43.200;27.920;2022-07-24T00:35:16;10.38;;;9.48;;
6941;SDS011;3510;43.200;27.920;2022-07-24T00:37:43;9.25;;;8.45;;
6941;SDS011;3510;43.200;27.920;2022-07-24T00:40:11;11.45;;;8.40;;
6941;SDS011;3510;43.200;27.920;2022-07-24T00:42:39;9.55;;;7.50;;
6941;SDS011;3510;43.200;27.920;2022-07-24T00:45:07;8.23;;;7.55;;
6941;SDS011;3510;43.200;27.920;2022-07-24T00:47:35;8.48;;;7.55;;
6941;SDS011;3510;43.200;27.920;2022-07-24T00:50:02;7.45;;;6.75;;
6941;SDS011;3510;43.200;27.920;2022-07-24T00:52:31;7.90;;;7.30;;
6941;SDS011;3510;43.200;27.920;2022-07-24T00:54:58;8.68;;;7.05;;
6941;SDS011;3510;43.200;27.920;2022-07-24T00:57:25;7.43;;;6.78;;
6941;SDS011;3510;43.200;27.920;2022-07-24T00:59:52;10.10;;;6.85;;
6941;SDS011;3510;43.200;27.920;2022-07-24T01:02:20;7.30;;;6.68;;
6941;SDS011;3510;43.200;27.920;2022-07-24T01:04:47;9.35;;;6.55;;
6941;SDS011;3510;43.200;27.920;2022-07-24T01:07:14;7.80;;;7.03;;
6941;SDS011;3510;43.200;27.920;2022-07-24T01:09:41;7.90;;;7.30;;
6941;SDS011;3510;43.200;27.920;2022-07-24T01:12:08;7.53;;;6.55;;
6941;SDS011;3510;43.200;27.920;2022-07-24T01:14:35;7.43;;;6.80;;
6941;SDS011;3510;43.200;27.920;2022-07-24T01:17:03;7.03;;;6.32;;
6941;SDS011;3510;43.200;27.920;2022-07-24T01:19:32;7.70;;;7.15;;
6941;SDS011;3510;43.200;27.920;2022-07-24T01:22:00;7.53;;;6.90;;
6941;SDS011;3510;43.200;27.920;2022-07-24T01:24:27;7.47;;;6.80;;
6941;SDS011;3510;43.200;27.920;2022-07-24T01:26:54;9.15;;;6.95;;
6941;SDS011;3510;43.200;27.920;2022-07-24T01:29:21;8.15;;;6.88;;
6941;SDS011;3510;43.200;27.920;2022-07-24T01:31:48;7.63;;;6.95;;
6941;SDS011;3510;43.200;27.920;2022-07-24T01:34:15;7.30;;;6.63;;
6941;SDS011;3510;43.200;27.920;2022-07-24T01:36:42;11.35;;;7.65;;
6941;SDS011;3510;43.200;27.920;2022-07-24T01:39:11;12.85;;;6.90;;
6941;SDS011;3510;43.200;27.920;2022-07-24T01:41:38;7.65;;;6.85;;
6941;SDS011;3510;43.200;27.920;2022-07-24T01:44:05;16.38;;;7.32;;
6941;SDS011;3510;43.200;27.920;2022-07-24T01:46:32;11.48;;;7.57;;
6941;SDS011;3510;43.200;27.920;2022-07-24T01:48:58;9.55;;;6.75;;
6941;SDS011;3510;43.200;27.920;2022-07-24T01:51:25;8.50;;;7.80;;
6941;SDS011;3510;43.200;27.920;2022-07-24T01:53:52;12.07;;;7.68;;
6941;SDS011;3510;43.200;27.920;2022-07-24T01:56:21;8.88;;;7.97;;
6941;SDS011;3510;43.200;27.920;2022-07-24T01:58:48;7.95;;;6.75;;
6941;SDS011;3510;43.200;27.920;2022-07-24T02:01:15;10.02;;;6.90;;
6941;SDS011;3510;43.200;27.920;2022-07-24T02:03:41;8.00;;;7.25;;
6941;SDS011;3510;43.200;27.920;2022-07-24T02:06:08;7.85;;;7.13;;
6941;SDS011;3510;43.200;27.920;2022-07-24T02:08:35;8.90;;;7.63;;
6941;SDS011;3510;43.200;27.920;2022-07-24T02:11:02;7.57;;;6.57;;
6941;SDS011;3510;43.200;27.920;2022-07-24T02:13:31;7.47;;;6.55;;
6941;SDS011;3510;43.200;27.920;2022-07-24T02:15:58;9.23;;;6.80;;
6941;SDS011;3510;43.200;27.920;2022-07-24T02:18:25;10.85;;;6.85;;
6941;SDS011;3510;43.200;27.920;2022-07-24T02:20:53;7.43;;;6.45;;
6941;SDS011;3510;43.200;27.920;2022-07-24T02:23:20;9.65;;;6.75;;
6941;SDS011;3510;43.200;27.920;2022-07-24T02:25:47;8.77;;;6.40;;
6941;SDS011;3510;43.200;27.920;2022-07-24T02:28:16;8.50;;;7.22;;
6941;SDS011;3510;43.200;27.920;2022-07-24T02:30:45;9.70;;;6.38;;
6941;SDS011;3510;43.200;27.920;2022-07-24T02:33:12;10.85;;;7.75;;
6941;SDS011;3510;43.200;27.920;2022-07-24T02:35:39;9.35;;;6.82;;
6941;SDS011;3510;43.200;27.920;2022-07-24T02:38:06;8.90;;;6.88;;
6941;SDS011;3510;43.200;27.920;2022-07-24T02:40:34;8.07;;;7.18;;
6941;SDS011;3510;43.200;27.920;2022-07-24T02:43:01;8.77;;;7.97;;
6941;SDS011;3510;43.200;27.920;2022-07-24T02:45:28;9.57;;;6.93;;
6941;SDS011;3510;43.200;27.920;2022-07-24T02:47:57;10.63;;;6.80;;
6941;SDS011;3510;43.200;27.920;2022-07-24T02:50:25;8.98;;;7.05;;
6941;SDS011;3510;43.200;27.920;2022-07-24T02:52:56;11.57;;;6.82;;
6941;SDS011;3510;43.200;27.920;2022-07-24T02:55:24;9.85;;;8.23;;
6941;SDS011;3510;43.200;27.920;2022-07-24T02:57:53;9.13;;;7.70;;
6941;SDS011;3510;43.200;27.920;2022-07-24T03:00:20;9.35;;;8.15;;
6941;SDS011;3510;43.200;27.920;2022-07-24T03:02:48;7.72;;;7.13;;
6941;SDS011;3510;43.200;27.920;2022-07-24T03:05:16;22.65;;;8.05;;
6941;SDS011;3510;43.200;27.920;2022-07-24T03:07:43;8.85;;;7.60;;
6941;SDS011;3510;43.200;27.920;2022-07-24T03:10:11;12.30;;;6.95;;
6941;SDS011;3510;43.200;27.920;2022-07-24T03:12:38;9.77;;;7.43;;
6941;SDS011;3510;43.200;27.920;2022-07-24T03:15:06;8.02;;;7.53;;
6941;SDS011;3510;43.200;27.920;2022-07-24T03:17:35;15.15;;;8.23;;
6941;SDS011;3510;43.200;27.920;2022-07-24T03:20:03;9.40;;;7.32;;
6941;SDS011;3510;43.200;27.920;2022-07-24T03:22:32;10.27;;;7.32;;
6941;SDS011;3510;43.200;27.920;2022-07-24T03:24:59;9.45;;;8.38;;
6941;SDS011;3510;43.200;27.920;2022-07-24T03:27:27;9.07;;;7.18;;
6941;SDS011;3510;43.200;27.920;2022-07-24T03:29:53;10.45;;;6.80;;
6941;SDS011;3510;43.200;27.920;2022-07-24T03:32:20;8.27;;;7.57;;
6941;SDS011;3510;43.200;27.920;2022-07-24T03:34:47;8.57;;;7.20;;
6941;SDS011;3510;43.200;27.920;2022-07-24T04:11:32;10.23;;;6.85;;
6941;SDS011;3510;43.200;27.920;2022-07-24T04:14:01;8.10;;;6.43;;
6941;SDS011;3510;43.200;27.920;2022-07-24T04:16:28;7.53;;;6.63;;
6941;SDS011;3510;43.200;27.920;2022-07-24T04:18:55;9.80;;;6.15;;
6941;SDS011;3510;43.200;27.920;2022-07-24T04:21:22;9.77;;;5.95;;
6941;SDS011;3510;43.200;27.920;2022-07-24T04:23:49;10.70;;;6.43;;
6941;SDS011;3510;43.200;27.920;2022-07-24T04:26:16;6.40;;;5.68;;
6941;SDS011;3510;43.200;27.920;2022-07-24T04:28:43;13.43;;;7.22;;
6941;SDS011;3510;43.200;27.920;2022-07-24T04:31:11;12.10;;;6.13;;
6941;SDS011;3510;43.200;27.920;2022-07-24T04:33:38;14.20;;;5.93;;
6941;SDS011;3510;43.200;27.920;2022-07-24T04:36:05;10.10;;;6.13;;
6941;SDS011;3510;43.200;27.920;2022-07-24T04:38:33;5.97;;;4.90;;
6941;SDS011;3510;43.200;27.920;2022-07-24T04:41:00;8.15;;;4.43;;
6941;SDS011;3510;43.200;27.920;2022-07-24T04:43:27;9.07;;;4.97;;
6941;SDS011;3510;43.200;27.920;2022-07-24T04:45:54;4.60;;;4.30;;
6941;SDS011;3510;43.200;27.920;2022-07-24T04:48:23;8.30;;;5.00;;
6941;SDS011;3510;43.200;27.920;2022-07-24T04:50:50;7.70;;;4.75;;
6941;SDS011;3510;43.200;27.920;2022-07-24T04:53:17;6.57;;;5.30;;
6941;SDS011;3510;43.200;27.920;2022-07-24T04:55:44;5.47;;;4.55;;
6941;SDS011;3510;43.200;27.920;2022-07-24T04:58:11;5.95;;;4.93;;
6941;SDS011;3510;43.200;27.920;2022-07-24T05:00:38;13.35;;;4.78;;
6941;SDS011;3510;43.200;27.920;2022-07-24T05:03:05;7.63;;;5.85;;
6941;SDS011;3510;43.200;27.920;2022-07-24T05:05:33;15.38;;;6.78;;
6941;SDS011;3510;43.200;27.920;2022-07-24T05:08:00;5.75;;;5.22;;
6941;SDS011;3510;43.200;27.920;2022-07-24T05:10:27;10.77;;;5.25;;
6941;SDS011;3510;43.200;27.920;2022-07-24T05:12:54;15.75;;;6.93;;
6941;SDS011;3510;43.200;27.920;2022-07-24T05:15:21;5.25;;;4.95;;
6941;SDS011;3510;43.200;27.920;2022-07-24T05:17:48;8.57;;;5.25;;
6941;SDS011;3510;43.200;27.920;2022-07-24T05:20:15;7.45;;;4.90;;
6941;SDS011;3510;43.200;27.920;2022-07-24T05:22:43;6.00;;;5.45;;
6941;SDS011;3510;43.200;27.920;2022-07-24T05:25:10;7.18;;;4.63;;
6941;SDS011;3510;43.200;27.920;2022-07-24T05:27:37;5.45;;;4.95;;
6941;SDS011;3510;43.200;27.920;2022-07-24T05:30:04;5.30;;;4.82;;
6941;SDS011;3510;43.200;27.920;2022-07-24T05:32:32;26.00;;;5.90;;
6941;SDS011;3510;43.200;27.920;2022-07-24T05:35:00;6.93;;;4.28;;
6941;SDS011;3510;43.200;27.920;2022-07-24T05:37:27;6.32;;;4.10;;
6941;SDS011;3510;43.200;27.920;2022-07-24T05:39:56;38.70;;;7.93;;
6941;SDS011;3510;43.200;27.920;2022-07-24T05:42:23;4.18;;;3.88;;
6941;SDS011;3510;43.200;27.920;2022-07-24T05:44:50;4.22;;;3.83;;
6941;SDS011;3510;43.200;27.920;2022-07-24T05:47:17;50.67;;;7.70;;
6941;SDS011;3510;43.200;27.920;2022-07-24T05:49:44;6.00;;;3.47;;
6941;SDS011;3510;43.200;27.920;2022-07-24T05:52:11;4.10;;;3.70;;
6941;SDS011;3510;43.200;27.920;2022-07-24T05:54:37;4.13;;;3.83;;
6941;SDS011;3510;43.200;27.920;2022-07-24T05:57:06;4.50;;;3.75;;
6941;SDS011;3510;43.200;27.920;2022-07-24T05:59:32;6.97;;;4.00;;
6941;SDS011;3510;43.200;27.920;2022-07-24T06:01:59;7.45;;;3.53;;
6941;SDS011;3510;43.200;27.920;2022-07-24T06:04:29;4.20;;;3.58;;
6941;SDS011;3510;43.200;27.920;2022-07-24T06:06:56;3.67;;;3.47;;
6941;SDS011;3510;43.200;27.920;2022-07-24T06:09:23;3.67;;;3.47;;
6941;SDS011;3510;43.200;27.920;2022-07-24T06:11:50;5.55;;;4.53;;
6941;SDS011;3510;43.200;27.920;2022-07-24T06:14:18;6.50;;;3.58;;
6941;SDS011;3510;43.200;27.920;2022-07-24T06:16:45;5.05;;;4.65;;
6941;SDS011;3510;43.200;27.920;2022-07-24T06:19:12;7.68;;;3.40;;
6941;SDS011;3510;43.200;27.920;2022-07-24T06:21:39;4.65;;;3.83;;
6941;SDS011;3510;43.200;27.920;2022-07-24T06:24:06;4.65;;;4.25;;
6941;SDS011;3510;43.200;27.920;2022-07-24T06:26:34;4.90;;;4.15;;
6941;SDS011;3510;43.200;27.920;2022-07-24T06:29:00;4.00;;;3.58;;
6941;SDS011;3510;43.200;27.920;2022-07-24T06:31:29;4.35;;;3.92;;
6941;SDS011;3510;43.200;27.920;2022-07-24T06:33:56;5.68;;;3.85;;
6941;SDS011;3510;43.200;27.920;2022-07-24T06:36:23;9.23;;;4.25;;
6941;SDS011;3510;43.200;27.920;2022-07-24T06:38:50;4.28;;;4.05;;
6941;SDS011;3510;43.200;27.920;2022-07-24T06:41:17;8.07;;;3.97;;
6941;SDS011;3510;43.200;27.920;2022-07-24T06:43:44;6.70;;;5.10;;
6941;SDS011;3510;43.200;27.920;2022-07-24T06:46:11;5.45;;;3.78;;
6941;SDS011;3510;43.200;27.920;2022-07-24T06:48:39;4.40;;;3.97;;
6941;SDS011;3510;43.200;27.920;2022-07-24T06:51:06;6.78;;;4.20;;
6941;SDS011;3510;43.200;27.920;2022-07-24T06:53:33;6.47;;;4.53;;
6941;SDS011;3510;43.200;27.920;2022-07-24T06:56:00;8.68;;;3.83;;
6941;SDS011;3510;43.200;27.920;2022-07-24T06:58:27;4.00;;;3.80;;
6941;SDS011;3510;43.200;27.920;2022-07-24T07:00:54;5.00;;;3.45;;
6941;SDS011;3510;43.200;27.920;2022-07-24T07:03:21;8.88;;;5.78;;
6941;SDS011;3510;43.200;27.920;2022-07-24T07:05:49;7.53;;;3.58;;
6941;SDS011;3510;43.200;27.920;2022-07-24T07:08:16;4.85;;;4.00;;
6941;SDS011;3510;43.200;27.920;2022-07-24T07:10:43;3.88;;;3.58;;
6941;SDS011;3510;43.200;27.920;2022-07-24T07:13:10;9.93;;;5.50;;
6941;SDS011;3510;43.200;27.920;2022-07-24T07:15:37;3.78;;;3.47;;
6941;SDS011;3510;43.200;27.920;2022-07-24T07:18:04;3.88;;;3.58;;
6941;SDS011;3510;43.200;27.920;2022-07-24T07:20:31;5.32;;;3.63;;
6941;SDS011;3510;43.200;27.920;2022-07-24T07:23:00;9.70;;;4.55;;
6941;SDS011;3510;43.200;27.920;2022-07-24T07:25:27;16.67;;;4.95;;
6941;SDS011;3510;43.200;27.920;2022-07-24T07:27:54;4.10;;;3.67;;
6941;SDS011;3510;43.200;27.920;2022-07-24T07:30:21;4.22;;;3.95;;
6941;SDS011;3510;43.200;27.920;2022-07-24T07:32:48;57.33;;;9.57;;
6941;SDS011;3510;43.200;27.920;2022-07-24T07:35:15;3.35;;;3.15;;
6941;SDS011;3510;43.200;27.920;2022-07-24T07:37:44;5.45;;;3.45;;
6941;SDS011;3510;43.200;27.920;2022-07-24T07:40:12;5.28;;;3.53;;
6941;SDS011;3510;43.200;27.920;2022-07-24T07:42:39;4.85;;;4.15;;
6941;SDS011;3510;43.200;27.920;2022-07-24T07:45:06;3.88;;;3.67;;
6941;SDS011;3510;43.200;27.920;2022-07-24T07:47:35;4.43;;;3.30;;
6941;SDS011;3510;43.200;27.920;2022-07-24T07:50:02;5.88;;;3.65;;
6941;SDS011;3510;43.200;27.920;2022-07-24T07:52:30;4.25;;;3.90;;
6941;SDS011;3510;43.200;27.920;2022-07-24T07:54:57;4.43;;;4.13;;
6941;SDS011;3510;43.200;27.920;2022-07-24T07:57:25;153.52;;;21.27;;
6941;SDS011;3510;43.200;27.920;2022-07-24T07:59:52;4.03;;;3.13;;
6941;SDS011;3510;43.200;27.920;2022-07-24T08:02:19;3.72;;;3.50;;
6941;SDS011;3510;43.200;27.920;2022-07-24T08:04:46;4.25;;;3.58;;
6941;SDS011;3510;43.200;27.920;2022-07-24T08:07:13;3.65;;;3.45;;
6941;SDS011;3510;43.200;27.920;2022-07-24T08:09:41;3.50;;;3.30;;
6941;SDS011;3510;43.200;27.920;2022-07-24T08:12:08;3.40;;;3.13;;
6941;SDS011;3510;43.200;27.920;2022-07-24T08:14:37;19.10;;;6.45;;
6941;SDS011;3510;43.200;27.920;2022-07-24T08:17:03;4.05;;;3.85;;
6941;SDS011;3510;43.200;27.920;2022-07-24T08:19:30;4.55;;;3.60;;
6941;SDS011;3510;43.200;27.920;2022-07-24T08:21:57;5.35;;;3.85;;
6941;SDS011;3510;43.200;27.920;2022-07-24T08:24:24;5.55;;;3.80;;
6941;SDS011;3510;43.200;27.920;2022-07-24T08:26:51;3.63;;;3.35;;
6941;SDS011;3510;43.200;27.920;2022-07-24T08:29:18;3.97;;;3.63;;
6941;SDS011;3510;43.200;27.920;2022-07-24T08:31:46;4.05;;;3.75;;
6941;SDS011;3510;43.200;27.920;2022-07-24T08:34:13;3.80;;;3.50;;
6941;SDS011;3510;43.200;27.920;2022-07-24T08:36:40;4.00;;;3.70;;
6941;SDS011;3510;43.200;27.920;2022-07-24T08:39:10;4.55;;;3.47;;
6941;SDS011;3510;43.200;27.920;2022-07-24T08:41:37;3.75;;;3.40;;
6941;SDS011;3510;43.200;27.920;2022-07-24T08:44:05;6.35;;;3.78;;
6941;SDS011;3510;43.200;27.920;2022-07-24T08:46:39;3.55;;;3.30;;
6941;SDS011;3510;43.200;27.920;2022-07-24T08:49:10;4.35;;;3.63;;
6941;SDS011;3510;43.200;27.920;2022-07-24T08:51:39;5.15;;;4.38;;
6941;SDS011;3510;43.200;27.920;2022-07-24T08:54:06;4.50;;;3.90;;
6941;SDS011;3510;43.200;27.920;2022-07-24T08:56:35;3.65;;;3.45;;
6941;SDS011;3510;43.200;27.920;2022-07-24T08:59:04;4.07;;;3.72;;
6941;SDS011;3510;43.200;27.920;2022-07-24T09:01:31;5.05;;;3.95;;
6941;SDS011;3510;43.200;27.920;2022-07-24T09:03:58;4.72;;;3.10;;
6941;SDS011;3510;43.200;27.920;2022-07-24T09:06:26;4.15;;;3.85;;
6941;SDS011;3510;43.200;27.920;2022-07-24T09:08:57;6.13;;;4.05;;
6941;SDS011;3510;43.200;27.920;2022-07-24T09:11:25;3.95;;;3.67;;
6941;SDS011;3510;43.200;27.920;2022-07-24T09:13:58;5.78;;;3.80;;
6941;SDS011;3510;43.200;27.920;2022-07-24T09:17:03;3.88;;;3.63;;
6941;SDS011;3510;43.200;27.920;2022-07-24T09:19:33;6.57;;;5.50;;
6941;SDS011;3510;43.200;27.920;2022-07-24T09:22:19;5.43;;;4.82;;
6941;SDS011;3510;43.200;27.920;2022-07-24T09:25:03;4.95;;;3.38;;
6941;SDS011;3510;43.200;27.920;2022-07-24T09:27:35;3.90;;;3.60;;
6941;SDS011;3510;43.200;27.920;2022-07-24T09:30:03;7.70;;;3.40;;
6941;SDS011;3510;43.200;27.920;2022-07-24T09:32:32;9.25;;;3.83;;
6941;SDS011;3510;43.200;27.920;2022-07-24T09:34:59;5.20;;;3.70;;
6941;SDS011;3510;43.200;27.920;2022-07-24T09:37:28;6.28;;;4.13;;
6941;SDS011;3510;43.200;27.920;2022-07-24T09:40:05;5.20;;;4.70;;
6941;SDS011;3510;43.200;27.920;2022-07-24T09:42:34;7.07;;;3.40;;
6941;SDS011;3510;43.200;27.920;2022-07-24T09:45:05;8.10;;;4.10;;
6941;SDS011;3510;43.200;27.920;2022-07-24T09:47:36;10.35;;;5.82;;
6941;SDS011;3510;43.200;27.920;2022-07-24T09:50:13;4.70;;;4.30;;
6941;SDS011;3510;43.200;27.920;2022-07-24T09:52:43;3.88;;;3.58;;
6941;SDS011;3510;43.200;27.920;2022-07-24T09:55:20;4.63;;;4.07;;
6941;SDS011;3510;43.200;27.920;2022-07-24T09:57:49;7.53;;;4.22;;
6941;SDS011;3510;43.200;27.920;2022-07-24T10:00:17;9.98;;;4.03;;
6941;SDS011;3510;43.200;27.920;2022-07-24T10:02:44;10.55;;;4.07;;
6941;SDS011;3510;43.200;27.920;2022-07-24T10:05:12;9.95;;;4.57;;
6941;SDS011;3510;43.200;27.920;2022-07-24T10:07:42;5.38;;;4.78;;
6941;SDS011;3510;43.200;27.920;2022-07-24T10:10:13;15.07;;;4.90;;
6941;SDS011;3510;43.200;27.920;2022-07-24T10:12:40;4.30;;;4.00;;
6941;SDS011;3510;43.200;27.920;2022-07-24T10:15:12;5.70;;;3.85;;
6941;SDS011;3510;43.200;27.920;2022-07-24T10:17:55;3.90;;;3.63;;
6941;SDS011;3510;43.200;27.920;2022-07-24T10:20:42;6.75;;;4.20;;
6941;SDS011;3510;43.200;27.920;2022-07-24T10:23:20;6.22;;;3.80;;
6941;SDS011;3510;43.200;27.920;2022-07-24T10:25:53;3.78;;;3.58;;
6941;SDS011;3510;43.200;27.920;2022-07-24T10:28:31;4.40;;;4.00;;
6941;SDS011;3510;43.200;27.920;2022-07-24T10:31:04;6.22;;;4.38;;
6941;SDS011;3510;43.200;27.920;2022-07-24T10:33:34;6.18;;;4.00;;
6941;SDS011;3510;43.200;27.920;2022-07-24T10:36:03;6.82;;;4.75;;
6941;SDS011;3510;43.200;27.920;2022-07-24T10:38:36;6.47;;;4.47;;
6941;SDS011;3510;43.200;27.920;2022-07-24T10:41:09;6.68;;;4.68;;
6941;SDS011;3510;43.200;27.920;2022-07-24T10:43:41;5.90;;;4.63;;
6941;SDS011;3510;43.200;27.920;2022-07-24T10:49:36;4.95;;;4.47;;
6941;SDS011;3510;43.200;27.920;2022-07-24T10:52:26;6.75;;;4.30;;
6941;SDS011;3510;43.200;27.920;2022-07-24T10:57:55;12.95;;;5.45;;
6941;SDS011;3510;43.200;27.920;2022-07-24T11:00:29;8.13;;;5.47;;
6941;SDS011;3510;43.200;27.920;2022-07-24T11:02:59;6.22;;;5.43;;
6941;SDS011;3510;43.200;27.920;2022-07-24T11:05:31;5.25;;;3.78;;
6941;SDS011;3510;43.200;27.920;2022-07-24T11:11:07;3.38;;;3.22;;
6941;SDS011;3510;43.200;27.920;2022-07-24T11:13:46;3.75;;;3.53;;
6941;SDS011;3510;43.200;27.920;2022-07-24T11:16:22;4.65;;;3.45;;
6941;SDS011;3510;43.200;27.920;2022-07-24T11:22:09;5.03;;;3.55;;
6941;SDS011;3510;43.200;27.920;2022-07-24T11:27:40;4.22;;;3.45;;
6941;SDS011;3510;43.200;27.920;2022-07-24T11:30:09;6.78;;;3.97;;
6941;SDS011;3510;43.200;27.920;2022-07-24T11:32:38;4.35;;;3.90;;
6941;SDS011;3510;43.200;27.920;2022-07-24T11:35:06;17.83;;;5.82;;
6941;SDS011;3510;43.200;27.920;2022-07-24T11:37:34;5.55;;;4.07;;
6941;SDS011;3510;43.200;27.920;2022-07-24T11:40:03;5.57;;;4.03;;
6941;SDS011;3510;43.200;27.920;2022-07-24T11:42:32;4.22;;;3.72;;
6941;SDS011;3510;43.200;27.920;2022-07-24T11:45:00;3.78;;;3.42;;
6941;SDS011;3510;43.200;27.920;2022-07-24T11:47:29;4.45;;;3.42;;
6941;SDS011;3510;43.200;27.920;2022-07-24T11:49:58;15.02;;;5.18;;
6941;SDS011;3510;43.200;27.920;2022-07-24T11:52:27;4.35;;;3.22;;
6941;SDS011;3510;43.200;27.920;2022-07-24T11:55:00;7.03;;;3.40;;
6941;SDS011;3510;43.200;27.920;2022-07-24T11:57:28;7.05;;;3.20;;
6941;SDS011;3510;43.200;27.920;2022-07-24T11:59:56;3.58;;;3.17;;
6941;SDS011;3510;43.200;27.920;2022-07-24T12:02:24;4.80;;;3.53;;
6941;SDS011;3510;43.200;27.920;2022-07-24T12:04:52;9.10;;;3.50;;
6941;SDS011;3510;43.200;27.920;2022-07-24T12:07:21;3.47;;;2.90;;
6941;SDS011;3510;43.200;27.920;2022-07-24T12:09:50;3.13;;;2.92;;
6941;SDS011;3510;43.200;27.920;2022-07-24T12:12:22;5.15;;;4.10;;
6941;SDS011;3510;43.200;27.920;2022-07-24T12:14:51;8.48;;;3.25;;
6941;SDS011;3510;43.200;27.920;2022-07-24T12:17:20;6.43;;;2.67;;
6941;SDS011;3510;43.200;27.920;2022-07-24T12:19:51;6.32;;;3.58;;
6941;SDS011;3510;43.200;27.920;2022-07-24T12:22:21;3.58;;;2.70;;
6941;SDS011;3510;43.200;27.920;2022-07-24T12:24:49;8.35;;;2.95;;
6941;SDS011;3510;43.200;27.920;2022-07-24T12:27:36;12.55;;;3.72;;
6941;SDS011;3510;43.200;27.920;2022-07-24T12:32:57;3.28;;;2.63;;
6941;SDS011;3510;43.200;27.920;2022-07-24T12:35:26;8.43;;;2.63;;
6941;SDS011;3510;43.200;27.920;2022-07-24T12:37:55;3.42;;;2.88;;
6941;SDS011;3510;43.200;27.920;2022-07-24T12:40:31;3.92;;;2.50;;
6941;SDS011;3510;43.200;27.920;2022-07-24T12:43:04;7.05;;;3.10;;
6941;SDS011;3510;43.200;27.920;2022-07-24T12:45:34;3.85;;;2.28;;
6941;SDS011;3510;43.200;27.920;2022-07-24T12:48:09;7.82;;;2.42;;
6941;SDS011;3510;43.200;27.920;2022-07-24T12:50:57;5.00;;;2.80;;
6941;SDS011;3510;43.200;27.920;2022-07-24T12:53:27;3.63;;;2.40;;
6941;SDS011;3510;43.200;27.920;2022-07-24T12:56:06;3.22;;;2.85;;
6941;SDS011;3510;43.200;27.920;2022-07-24T12:58:50;11.75;;;4.40;;
6941;SDS011;3510;43.200;27.920;2022-07-24T13:01:18;10.23;;;2.97;;
6941;SDS011;3510;43.200;27.920;2022-07-24T13:03:56;6.93;;;3.92;;
6941;SDS011;3510;43.200;27.920;2022-07-24T13:06:31;4.28;;;2.47;;
6941;SDS011;3510;43.200;27.920;2022-07-24T13:09:01;9.30;;;2.67;;
6941;SDS011;3510;43.200;27.920;2022-07-24T13:11:29;6.53;;;2.33;;
6941;SDS011;3510;43.200;27.920;2022-07-24T13:13:56;6.15;;;3.05;;
6941;SDS011;3510;43.200;27.920;2022-07-24T13:16:25;8.55;;;2.92;;
6941;SDS011;3510;43.200;27.920;2022-07-24T13:18:53;4.43;;;2.97;;
6941;SDS011;3510;43.200;27.920;2022-07-24T13:21:20;5.07;;;2.83;;
6941;SDS011;3510;43.200;27.920;2022-07-24T13:23:48;5.88;;;3.20;;
6941;SDS011;3510;43.200;27.920;2022-07-24T13:26:16;13.02;;;4.45;;
6941;SDS011;3510;43.200;27.920;2022-07-24T13:28:43;13.07;;;3.45;;
6941;SDS011;3510;43.200;27.920;2022-07-24T13:31:10;6.43;;;3.25;;
6941;SDS011;3510;43.200;27.920;2022-07-24T13:33:37;8.68;;;2.72;;
6941;SDS011;3510;43.200;27.920;2022-07-24T13:36:04;35.22;;;7.53;;
6941;SDS011;3510;43.200;27.920;2022-07-24T13:38:32;6.80;;;2.75;;
6941;SDS011;3510;43.200;27.920;2022-07-24T13:40:59;10.65;;;3.30;;
6941;SDS011;3510;43.200;27.920;2022-07-24T13:43:27;4.60;;;3.08;;
6941;SDS011;3510;43.200;27.920;2022-07-24T13:45:54;3.92;;;2.72;;
6941;SDS011;3510;43.200;27.920;2022-07-24T13:48:21;6.45;;;2.97;;
6941;SDS011;3510;43.200;27.920;2022-07-24T13:50:49;4.75;;;3.30;;
6941;SDS011;3510;43.200;27.920;2022-07-24T13:53:16;6.35;;;2.78;;
6941;SDS011;3510;43.200;27.920;2022-07-24T13:55:43;12.75;;;3.40;;
6941;SDS011;3510;43.200;27.920;2022-07-24T13:58:10;7.25;;;3.90;;
6941;SDS011;3510;43.200;27.920;2022-07-24T14:00:39;3.17;;;2.88;;
6941;SDS011;3510;43.200;27.920;2022-07-24T14:03:06;4.20;;;2.78;;
6941;SDS011;3510;43.200;27.920;2022-07-24T14:05:33;4.00;;;2.80;;
6941;SDS011;3510;43.200;27.920;2022-07-24T14:08:00;13.43;;;3.10;;
6941;SDS011;3510;43.200;27.920;2022-07-24T14:10:27;5.90;;;3.10;;
6941;SDS011;3510;43.200;27.920;2022-07-24T14:12:54;51.35;;;7.35;;
6941;SDS011;3510;43.200;27.920;2022-07-24T14:15:21;5.10;;;2.63;;
6941;SDS011;3510;43.200;27.920;2022-07-24T14:17:49;13.75;;;3.08;;
6941;SDS011;3510;43.200;27.920;2022-07-24T14:20:16;6.55;;;2.40;;
6941;SDS011;3510;43.200;27.920;2022-07-24T14:22:44;2.72;;;2.50;;
6941;SDS011;3510;43.200;27.920;2022-07-24T14:25:11;9.88;;;3.50;;
6941;SDS011;3510;43.200;27.920;2022-07-24T14:27:37;3.47;;;2.50;;
6941;SDS011;3510;43.200;27.920;2022-07-24T14:30:05;3.88;;;3.53;;
6941;SDS011;3510;43.200;27.920;2022-07-24T14:32:33;7.80;;;2.85;;
6941;SDS011;3510;43.200;27.920;2022-07-24T14:35:01;8.32;;;3.13;;
6941;SDS011;3510;43.200;27.920;2022-07-24T14:37:32;5.35;;;2.95;;
6941;SDS011;3510;43.200;27.920;2022-07-24T14:40:04;6.43;;;2.83;;
6941;SDS011;3510;43.200;27.920;2022-07-24T14:42:33;11.77;;;2.70;;
6941;SDS011;3510;43.200;27.920;2022-07-24T14:45:01;4.82;;;2.90;;
6941;SDS011;3510;43.200;27.920;2022-07-24T14:47:28;3.55;;;2.80;;
6941;SDS011;3510;43.200;27.920;2022-07-24T14:49:55;7.43;;;2.85;;
6941;SDS011;3510;43.200;27.920;2022-07-24T14:52:23;11.02;;;3.20;;
6941;SDS011;3510;43.200;27.920;2022-07-24T14:54:50;7.28;;;3.13;;
6941;SDS011;3510;43.200;27.920;2022-07-24T14:57:18;11.30;;;2.80;;
6941;SDS011;3510;43.200;27.920;2022-07-24T14:59:44;6.28;;;2.83;;
6941;SDS011;3510;43.200;27.920;2022-07-24T15:02:11;4.18;;;2.83;;
6941;SDS011;3510;43.200;27.920;2022-07-24T15:04:38;4.70;;;2.53;;
6941;SDS011;3510;43.200;27.920;2022-07-24T15:07:06;5.75;;;2.70;;
6941;SDS011;3510;43.200;27.920;2022-07-24T15:09:35;8.38;;;2.85;;
6941;SDS011;3510;43.200;27.920;2022-07-24T15:12:02;12.82;;;2.88;;
6941;SDS011;3510;43.200;27.920;2022-07-24T15:14:29;4.03;;;2.95;;
6941;SDS011;3510;43.200;27.920;2022-07-24T15:16:56;10.02;;;3.28;;
6941;SDS011;3510;43.200;27.920;2022-07-24T15:19:23;9.77;;;3.65;;
6941;SDS011;3510;43.200;27.920;2022-07-24T15:21:50;31.48;;;7.60;;
6941;SDS011;3510;43.200;27.920;2022-07-24T15:24:18;7.03;;;3.20;;
6941;SDS011;3510;43.200;27.920;2022-07-24T15:26:46;10.20;;;3.72;;
6941;SDS011;3510;43.200;27.920;2022-07-24T15:29:15;8.68;;;3.10;;
6941;SDS011;3510;43.200;27.920;2022-07-24T15:31:42;5.28;;;2.70;;
6941;SDS011;3510;43.200;27.920;2022-07-24T15:34:10;9.10;;;3.22;;
6941;SDS011;3510;43.200;27.920;2022-07-24T15:36:37;7.03;;;2.90;;
6941;SDS011;3510;43.200;27.920;2022-07-24T15:39:05;7.45;;;3.75;;
6941;SDS011;3510;43.200;27.920;2022-07-24T15:41:33;4.72;;;2.90;;
6941;SDS011;3510;43.200;27.920;2022-07-24T15:44:01;8.63;;;3.25;;
6941;SDS011;3510;43.200;27.920;2022-07-24T15:46:29;7.93;;;3.13;;
6941;SDS011;3510;43.200;27.920;2022-07-24T15:48:56;44.08;;;7.45;;
6941;SDS011;3510;43.200;27.920;2022-07-24T15:51:23;7.45;;;2.88;;
6941;SDS011;3510;43.200;27.920;2022-07-24T15:56:17;5.97;;;3.10;;
6941;SDS011;3510;43.200;27.920;2022-07-24T15:58:44;5.43;;;4.07;;
6941;SDS011;3510;43.200;27.920;2022-07-24T16:01:12;21.35;;;4.43;;